Time;durP1;ratioP1;P1;durP2;ratioP2;P2;SDS_P1;SDS_P2;PMS_P1;PMS_P2;Temp;Humidity;BMP_temperature;BMP_pressure;BME280_temperature;BME280_humidity;BME280_pressure;Samples;Min_cycle;Max_cycle;Signal;HPM_P1;HPM_P2
2023/12/16 00:00:06;;;;;;;5.40;2.72;;;;;;;3.89;100.00;99117.03;5030895;28;20608;-58
2023/12/16 00:02:32;;;;;;;4.57;2.63;;;;;;;4.37;100.00;99198.28;5030835;28;20186;-57
2023/12/16 00:04:57;;;;;;;12.50;5.65;;;;;;;4.11;100.00;99174.38;5030631;28;20194;-57
2023/12/16 00:07:23;;;;;;;281.50;88.47;;;;;;;4.27;100.00;99176.41;5030756;28;20672;-57
2023/12/16 00:09:48;;;;;;;7.93;4.85;;;;;;;4.61;100.00;99233.38;5030706;28;20669;-58
2023/12/16 00:12:14;;;;;;;49.55;21.92;;;;;;;4.24;100.00;99161.16;5030560;28;20248;-57
2023/12/16 00:14:40;;;;;;;4.93;3.10;;;;;;;4.51;100.00;99203.00;5030537;28;20190;-57
2023/12/16 00:17:05;;;;;;;1.00;1.00;;;;;;;4.76;100.00;99253.41;5030487;28;20182;-57
2023/12/16 00:19:31;;;;;;;1.10;1.00;;;;;;;4.39;100.00;99221.31;5030248;28;20229;-57
2023/12/16 00:21:56;;;;;;;0.93;0.93;;;;;;;4.24;100.00;99217.50;5030432;28;20194;-57
2023/12/16 00:24:22;;;;;;;0.70;0.70;;;;;;;4.58;100.00;99256.56;5032003;28;20178;-58
2023/12/16 00:26:47;;;;;;;0.60;0.60;;;;;;;4.08;100.00;99147.13;5032242;28;20645;-58
2023/12/16 00:29:13;;;;;;;0.47;0.47;;;;;;;4.54;100.00;99242.16;5032726;28;20177;-58
2023/12/16 00:31:39;;;;;;;1.00;0.60;;;;;;;3.89;100.00;99156.28;5010243;28;20191;-58
2023/12/16 00:34:05;;;;;;;0.73;0.73;;;;;;;4.30;100.00;99225.00;5010480;28;20199;-58
2023/12/16 00:36:30;;;;;;;2.88;2.47;;;;;;;4.00;100.00;99195.19;5010357;28;20191;-58
2023/12/16 00:38:58;;;;;;;2.95;2.67;;;;;;;3.46;100.00;99139.66;5010370;28;20184;-58
2023/12/16 00:41:23;;;;;;;1.60;1.50;;;;;;;4.03;100.00;99259.09;5010319;28;20183;-58
2023/12/16 00:43:49;;;;;;;1.10;1.10;;;;;;;3.29;100.00;99149.53;5029811;28;20200;-58
2023/12/16 00:46:15;;;;;;;0.70;0.70;;;;;;;3.67;100.00;99219.19;5029814;28;20602;-58
2023/12/16 00:48:40;;;;;;;0.90;0.90;;;;;;;3.52;100.00;99171.03;5029878;28;20195;-58
2023/12/16 00:51:06;;;;;;;0.70;0.70;;;;;;;3.53;100.00;99170.16;5029821;28;20187;-58
2023/12/16 00:53:31;;;;;;;0.70;0.70;;;;;;;3.79;100.00;99177.91;5029802;28;20210;-58
2023/12/16 00:55:57;;;;;;;0.70;0.70;;;;;;;4.15;100.00;99248.50;5029675;28;20360;-58
2023/12/16 00:58:23;;;;;;;0.93;0.93;;;;;;;3.75;100.00;99188.28;5029748;28;20191;-58
2023/12/16 01:00:49;;;;;;;1.05;1.05;;;;;;;3.81;100.00;99200.88;5029583;28;20624;-58
2023/12/16 01:03:14;;;;;;;0.95;0.70;;;;;;;3.45;100.00;99197.66;5060157;28;20633;-58
2023/12/16 01:05:40;;;;;;;0.80;0.80;;;;;;;3.49;100.00;99181.34;5069440;28;20184;-58
2023/12/16 01:08:05;;;;;;;0.90;0.90;;;;;;;3.61;100.00;99177.59;5069436;28;20612;-58
2023/12/16 01:10:31;;;;;;;0.82;0.82;;;;;;;4.17;100.00;99246.75;5069474;28;20180;-58
2023/12/16 01:12:56;;;;;;;0.82;0.82;;;;;;;4.20;100.00;99241.50;5069342;28;20213;-58
2023/12/16 01:15:21;;;;;;;0.85;0.85;;;;;;;4.42;100.00;99272.44;5069398;28;20184;-58
2023/12/16 01:17:47;;;;;;;0.70;0.70;;;;;;;4.18;100.00;99276.59;5069162;28;20600;-58
2023/12/16 01:20:13;;;;;;;0.52;0.52;;;;;;;3.58;100.00;99177.69;5066255;28;20284;-58
2023/12/16 01:22:38;;;;;;;0.60;0.60;;;;;;;3.90;100.00;99250.09;5031860;28;20182;-58
2023/12/16 01:25:05;;;;;;;0.60;0.60;;;;;;;3.50;100.00;99190.69;5031644;28;20275;-58
2023/12/16 01:27:31;;;;;;;3.30;0.50;;;;;;;3.85;100.00;99277.53;5031726;28;20220;-58
2023/12/16 01:29:57;;;;;;;0.90;0.90;;;;;;;3.73;100.00;99216.47;5009352;28;20191;-58
2023/12/16 01:32:22;;;;;;;1.00;1.00;;;;;;;4.20;100.00;99272.25;5009389;28;20225;-58
2023/12/16 01:34:48;;;;;;;0.93;0.93;;;;;;;3.94;100.00;99264.50;5009487;28;20187;-58
2023/12/16 01:37:16;;;;;;;1.25;1.25;;;;;;;4.06;100.00;99282.06;5009526;28;20274;-58
2023/12/16 01:39:41;;;;;;;1.17;1.10;;;;;;;3.68;100.00;99210.63;5008512;28;20191;-58
2023/12/16 01:42:07;;;;;;;0.50;0.50;;;;;;;3.87;100.00;99211.81;5009359;28;20278;-58
2023/12/16 01:44:32;;;;;;;0.70;0.70;;;;;;;4.36;100.00;99273.47;5009283;28;20194;-58
2023/12/16 01:46:58;;;;;;;0.60;0.60;;;;;;;3.82;100.00;99182.09;5009322;28;20647;-58
2023/12/16 01:49:24;;;;;;;0.60;0.60;;;;;;;4.09;100.00;99228.19;5009353;28;20747;-58
2023/12/16 01:51:50;;;;;;;0.60;0.60;;;;;;;4.35;100.00;99282.06;5009284;28;20260;-58
2023/12/16 01:54:15;;;;;;;1.15;0.60;;;;;;;3.92;100.00;99204.81;5009332;28;20175;-58
2023/12/16 01:56:41;;;;;;;0.60;0.60;;;;;;;4.27;100.00;99288.28;5009213;28;20214;-58
2023/12/16 01:59:07;;;;;;;0.60;0.60;;;;;;;4.06;100.00;99237.69;5009193;28;20574;-58
2023/12/16 02:01:33;;;;;;;0.40;0.40;;;;;;;3.73;100.00;99187.50;5025729;28;20201;-58
2023/12/16 02:03:59;;;;;;;0.57;0.57;;;;;;;4.09;100.00;99273.47;5031399;28;20174;-58
2023/12/16 02:06:26;;;;;;;0.60;0.60;;;;;;;3.99;100.00;99249.00;5031351;28;20299;-58
2023/12/16 02:08:51;;;;;;;0.50;0.50;;;;;;;4.32;100.00;99284.69;5031327;28;20541;-58
2023/12/16 02:11:17;;;;;;;0.60;0.60;;;;;;;4.20;100.00;99256.06;5031332;28;20182;-58
2023/12/16 02:13:43;;;;;;;0.50;0.50;;;;;;;4.06;100.00;99220.63;5031131;28;20268;-58
2023/12/16 02:16:10;;;;;;;0.50;0.50;;;;;;;4.53;100.00;99296.88;5031200;28;20188;-58
2023/12/16 02:18:36;;;;;;;0.60;0.60;;;;;;;4.20;100.00;99238.94;5031183;28;20209;-58
2023/12/16 02:21:02;;;;;;;0.57;0.57;;;;;;;4.51;100.00;99297.78;5031160;28;20182;-58
2023/12/16 02:23:27;;;;;;;0.50;0.50;;;;;;;4.40;100.00;99280.19;5028562;28;20630;-58
2023/12/16 02:25:53;;;;;;;0.95;0.60;;;;;;;4.06;100.00;99242.81;5028907;28;20229;-58
2023/12/16 02:28:18;;;;;;;0.50;0.50;;;;;;;4.15;100.00;99284.34;5028766;28;20197;-58
2023/12/16 02:30:44;;;;;;;0.50;0.50;;;;;;;4.18;100.00;99288.53;5028684;28;20186;-58
2023/12/16 02:33:09;;;;;;;0.40;0.40;;;;;;;3.78;100.00;99206.09;5028684;28;20272;-58
2023/12/16 02:35:35;;;;;;;0.50;0.50;;;;;;;3.90;100.00;99242.41;5028691;28;20179;-58
2023/12/16 02:38:01;;;;;;;0.50;0.50;;;;;;;3.96;100.00;99257.59;5028559;28;20194;-58
2023/12/16 02:40:26;;;;;;;0.60;0.60;;;;;;;3.76;100.00;99208.72;5028574;28;20174;-58
2023/12/16 02:42:52;;;;;;;0.50;0.50;;;;;;;4.30;100.00;99311.22;5028528;28;20196;-58
2023/12/16 02:45:18;;;;;;;0.50;0.50;;;;;;;4.21;100.00;99280.78;5028585;28;20179;-58
2023/12/16 02:47:43;;;;;;;0.47;0.47;;;;;;;3.82;100.00;99205.97;5028519;28;20183;-58
2023/12/16 02:50:09;;;;;;;0.38;0.38;;;;;;;4.30;100.00;99295.88;5030333;28;20209;-58
2023/12/16 02:52:34;;;;;;;0.50;0.50;;;;;;;4.40;100.00;99320.34;5032165;28;20202;-58
2023/12/16 02:55:00;;;;;;;0.70;0.70;;;;;;;4.30;100.00;99321.47;5033699;28;20190;-58
2023/12/16 02:57:25;;;;;;;0.60;0.60;;;;;;;4.05;100.00;99288.06;5034803;28;20269;-58
2023/12/16 02:59:51;;;;;;;0.50;0.50;;;;;;;4.20;100.00;99318.34;5034175;28;20261;-58
2023/12/16 03:02:16;;;;;;;0.77;0.77;;;;;;;3.89;100.00;99274.03;5034403;28;20178;-58
2023/12/16 03:04:42;;;;;;;1.75;1.60;;;;;;;3.93;100.00;99303.78;5034383;28;20254;-58
2023/12/16 03:07:08;;;;;;;0.80;0.80;;;;;;;3.88;100.00;99325.25;5034357;28;20185;-58
2023/12/16 03:09:33;;;;;;;0.57;0.57;;;;;;;3.49;100.00;99273.44;5034279;28;20182;-58
2023/12/16 03:12:00;;;;;;;0.90;0.90;;;;;;;3.66;100.00;99301.97;5034182;28;20206;-58
2023/12/16 03:14:26;;;;;;;1.02;1.02;;;;;;;3.68;100.00;99307.06;5034160;28;20193;-58
2023/12/16 03:16:52;;;;;;;1.45;1.35;;;;;;;3.78;100.00;99311.00;5033869;28;20170;-58
2023/12/16 03:19:19;;;;;;;2.10;1.90;;;;;;;3.41;100.00;99259.16;5034095;28;20229;-58
2023/12/16 03:21:44;;;;;;;2.33;2.13;;;;;;;3.74;100.00;99299.22;5034124;28;20175;-58
2023/12/16 03:24:10;;;;;;;2.78;2.47;;;;;;;3.64;100.00;99275.59;5034083;28;20612;-58
2023/12/16 03:26:35;;;;;;;3.40;3.10;;;;;;;4.00;100.00;99320.66;5033775;28;20562;-58
2023/12/16 03:29:01;;;;;;;3.83;3.22;;;;;;;4.33;100.00;99375.19;5033979;28;20174;-58
2023/12/16 03:31:27;;;;;;;3.13;2.83;;;;;;;3.61;100.00;99280.78;5034231;28;20318;-58
2023/12/16 03:33:53;;;;;;;2.70;2.50;;;;;;;3.84;100.00;99341.59;5033770;28;20673;-58
2023/12/16 03:36:19;;;;;;;4.28;2.33;;;;;;;3.64;100.00;99321.66;5033872;28;20175;-58
2023/12/16 03:38:44;;;;;;;3.42;2.72;;;;;;;3.87;100.00;99380.75;5033768;28;20265;-58
2023/12/16 03:41:11;;;;;;;5.07;3.20;;;;;;;3.58;100.00;99347.41;5033531;28;20689;-58
2023/12/16 03:43:37;;;;;;;5.70;4.07;;;;;;;3.22;100.00;99306.56;5033773;28;20178;-58
2023/12/16 03:46:03;;;;;;;3.00;2.72;;;;;;;3.31;100.00;99340.41;5033416;28;20181;-58
2023/12/16 03:48:28;;;;;;;2.42;2.33;;;;;;;3.19;100.00;99296.38;5033563;28;20198;-58
2023/12/16 03:50:54;;;;;;;2.13;1.98;;;;;;;3.92;100.00;99409.59;5033601;28;20198;-58
2023/12/16 03:53:19;;;;;;;2.60;2.40;;;;;;;3.36;100.00;99315.56;5033522;28;20210;-58
2023/12/16 03:55:45;;;;;;;3.60;3.28;;;;;;;3.80;100.00;99409.91;5030889;28;20252;-58
2023/12/16 03:58:10;;;;;;;3.10;2.80;;;;;;;3.75;100.00;99410.94;5031041;28;20252;-58
2023/12/16 04:00:35;;;;;;;3.88;2.95;;;;;;;3.68;100.00;99405.13;5030708;28;20187;-58
2023/12/16 04:03:02;;;;;;;2.80;2.60;;;;;;;3.12;100.00;99275.28;5030247;28;20190;-58
2023/12/16 04:05:28;;;;;;;2.60;2.40;;;;;;;3.31;100.00;99342.97;5030760;28;20191;-58
2023/12/16 04:07:53;;;;;;;4.05;3.75;;;;;;;3.26;100.00;99360.13;5036605;28;20209;-58
2023/12/16 04:10:18;;;;;;;4.60;4.20;;;;;;;2.97;100.00;99315.72;5050727;28;20695;-58
2023/12/16 04:12:44;;;;;;;3.53;2.83;;;;;;;3.19;100.00;99335.59;5050585;28;20712;-58
2023/12/16 04:15:11;;;;;;;4.70;4.20;;;;;;;3.79;100.00;99408.25;5050598;28;20189;-58
2023/12/16 04:17:37;;;;;;;4.32;3.88;;;;;;;3.62;100.00;99396.78;5050303;28;20208;-58
2023/12/16 04:20:03;;;;;;;2.97;2.75;;;;;;;3.30;100.00;99346.41;5050567;28;20174;-58
2023/12/16 04:22:29;;;;;;;3.35;2.78;;;;;;;3.37;100.00;99326.63;5050429;28;20229;-58
2023/12/16 04:24:57;;;;;;;6.07;3.78;;;;;;;3.65;100.00;99377.06;5050445;28;20206;-58
2023/12/16 04:27:24;;;;;;;4.65;4.03;;;;;;;3.16;100.00;99327.16;5051976;28;20190;-58
2023/12/16 04:29:50;;;;;;;3.78;3.35;;;;;;;3.69;100.00;99409.38;5050152;28;20192;-58
2023/12/16 04:32:15;;;;;;;3.90;3.60;;;;;;;3.63;100.00;99386.47;5050229;28;20214;-58
2023/12/16 04:34:41;;;;;;;4.28;3.97;;;;;;;3.84;100.00;99441.44;5050258;28;20181;-58
2023/12/16 04:37:06;;;;;;;6.13;4.85;;;;;;;3.18;100.00;99345.84;5050328;28;20269;-58
2023/12/16 04:39:32;;;;;;;4.47;4.07;;;;;;;3.22;100.00;99353.41;5050149;28;20189;-58
2023/12/16 04:41:57;;;;;;;6.30;4.88;;;;;;;3.36;100.00;99353.94;5050143;28;20190;-58
2023/12/16 04:44:23;;;;;;;5.78;4.68;;;;;;;3.42;100.00;99361.44;5050137;28;20575;-58
2023/12/16 04:46:48;;;;;;;8.90;6.35;;;;;;;3.38;100.00;99366.69;5050399;28;20280;-58
2023/12/16 04:49:14;;;;;;;8.23;5.57;;;;;;;3.83;100.00;99455.06;5050250;28;20182;-58
2023/12/16 04:51:39;;;;;;;16.65;11.63;;;;;;;3.62;100.00;99440.28;5049910;28;20181;-58
2023/12/16 04:54:04;;;;;;;7.07;4.95;;;;;;;3.38;100.00;99395.63;5049852;28;20182;-58
2023/12/16 04:56:30;;;;;;;5.40;3.30;;;;;;;3.70;100.00;99464.78;5049870;28;20190;-58
2023/12/16 04:58:55;;;;;;;1.83;1.73;;;;;;;3.14;100.00;99401.34;5049814;28;20174;-58
2023/12/16 05:01:21;;;;;;;1.02;1.02;;;;;;;3.18;100.00;99402.09;5051251;28;20192;-58
2023/12/16 05:03:47;;;;;;;1.02;0.95;;;;;;;3.56;100.00;99482.19;5052191;28;20183;-58
2023/12/16 05:06:13;;;;;;;5.10;0.82;;;;;;;3.63;100.00;99488.00;5052138;28;20261;-58
2023/12/16 05:08:38;;;;;;;1.45;1.40;;;;;;;3.71;100.00;99491.22;5052050;28;20732;-58
2023/12/16 05:11:04;;;;;;;2.97;2.78;;;;;;;3.70;100.00;99459.69;5052300;28;20189;-58
2023/12/16 05:13:29;;;;;;;7.90;5.97;;;;;;;3.51;100.00;99422.59;5051491;28;20212;-58
2023/12/16 05:15:55;;;;;;;7.80;6.15;;;;;;;3.87;100.00;99472.91;5051881;28;20181;-58
2023/12/16 05:18:23;;;;;;;7.28;5.53;;;;;;;3.93;100.00;99485.56;5052176;28;20193;-58
2023/12/16 05:20:48;;;;;;;6.72;5.45;;;;;;;3.79;100.00;99489.31;5051796;28;20671;-58
2023/12/16 05:23:14;;;;;;;4.13;3.72;;;;;;;3.77;100.00;99463.75;5051877;28;20185;-58
2023/12/16 05:25:40;;;;;;;4.30;3.90;;;;;;;3.36;100.00;99405.09;5051468;28;20610;-58
2023/12/16 05:28:05;;;;;;;4.10;3.78;;;;;;;3.74;100.00;99475.78;5051671;28;20197;-58
2023/12/16 05:30:31;;;;;;;4.20;3.38;;;;;;;3.55;100.00;99442.13;5051463;28;20166;-58
2023/12/16 05:32:56;;;;;;;7.85;5.40;;;;;;;3.91;100.00;99505.19;5048996;28;20225;-58
2023/12/16 05:35:22;;;;;;;5.35;4.40;;;;;;;3.20;100.00;99401.19;5049159;28;20186;-58
2023/12/16 05:37:48;;;;;;;4.38;3.22;;;;;;;3.81;100.00;99497.78;5049076;28;20197;-58
2023/12/16 05:40:14;;;;;;;2.95;2.60;;;;;;;3.72;100.00;99475.81;5049114;28;20178;-58
2023/12/16 05:42:40;;;;;;;3.95;3.65;;;;;;;3.35;100.00;99444.31;5049136;28;20189;-58
2023/12/16 05:45:06;;;;;;;2.13;2.03;;;;;;;3.29;100.00;99418.03;5049027;28;20256;-58
2023/12/16 05:47:32;;;;;;;2.05;1.95;;;;;;;3.37;100.00;99418.69;5048978;28;20192;-58
2023/12/16 05:49:57;;;;;;;2.20;2.10;;;;;;;3.54;100.00;99442.16;5049009;28;20680;-58
2023/12/16 05:52:23;;;;;;;2.38;2.22;;;;;;;3.90;100.00;99512.94;5048879;28;20209;-58
2023/12/16 05:54:48;;;;;;;2.60;2.40;;;;;;;3.74;100.00;99479.19;5048965;28;20190;-58
2023/12/16 05:57:13;;;;;;;2.60;2.40;;;;;;;3.90;100.00;99520.63;5048894;28;20174;-58
2023/12/16 05:59:39;;;;;;;2.00;1.90;;;;;;;3.89;100.00;99527.44;5048890;28;20194;-58
2023/12/16 06:02:05;;;;;;;1.65;1.55;;;;;;;3.33;100.00;99445.25;5048845;28;20569;-58
2023/12/16 06:04:30;;;;;;;1.20;1.20;;;;;;;3.33;100.00;99448.63;5050401;28;20190;-58
2023/12/16 06:06:56;;;;;;;2.15;2.05;;;;;;;3.80;100.00;99517.41;5029051;28;20580;-58
2023/12/16 06:09:22;;;;;;;1.35;1.35;;;;;;;4.05;100.00;99538.16;5028873;28;20281;-58
2023/12/16 06:11:47;;;;;;;0.98;0.98;;;;;;;3.66;100.00;99473.41;5028751;28;20213;-58
2023/12/16 06:14:13;;;;;;;1.38;1.27;;;;;;;3.46;100.00;99473.06;5028853;28;20185;-58
2023/12/16 06:16:38;;;;;;;2.42;2.20;;;;;;;3.98;100.00;99565.63;5028734;28;20194;-58
2023/12/16 06:19:03;;;;;;;16.75;8.77;;;;;;;3.56;100.00;99497.53;5028568;28;20198;-58
2023/12/16 06:21:32;;;;;;;1.70;1.60;;;;;;;3.86;100.00;99555.66;5029005;28;20190;-57
2023/12/16 06:23:58;;;;;;;1.40;1.30;;;;;;;3.84;100.00;99542.06;5028680;28;20191;-57
2023/12/16 06:26:24;;;;;;;1.23;1.23;;;;;;;4.11;100.00;99578.97;5032391;28;20186;-57
2023/12/16 06:28:49;;;;;;;1.63;1.52;;;;;;;3.86;100.00;99548.00;5032674;28;20217;-57
2023/12/16 06:31:16;;;;;;;3.00;2.75;;;;;;;4.04;100.00;99606.47;5032409;28;20549;-57
2023/12/16 06:33:41;;;;;;;2.05;1.65;;;;;;;3.69;100.00;99554.41;5012416;28;20273;-57
2023/12/16 06:36:07;;;;;;;1.50;1.40;;;;;;;3.93;100.00;99603.31;5012691;28;20577;-57
2023/12/16 06:38:32;;;;;;;1.50;1.50;;;;;;;4.01;100.00;99596.28;5043030;28;20226;-57
2023/12/16 06:40:58;;;;;;;1.90;1.80;;;;;;;4.08;100.00;99594.44;5052303;28;20708;-58
2023/12/16 06:43:23;;;;;;;3.28;2.63;;;;;;;3.87;100.00;99559.94;5052580;28;20601;-58
2023/12/16 06:45:49;;;;;;;3.28;2.88;;;;;;;3.99;100.00;99561.34;5051719;28;20178;-58
2023/12/16 06:48:14;;;;;;;3.17;2.88;;;;;;;3.75;100.00;99550.00;5052232;28;20190;-58
2023/12/16 06:50:40;;;;;;;6.43;4.40;;;;;;;3.62;100.00;99533.22;5052379;28;20186;-58
2023/12/16 06:53:06;;;;;;;4.38;2.65;;;;;;;4.16;100.00;99618.13;5052030;28;20766;-58
2023/12/16 06:55:31;;;;;;;5.18;3.53;;;;;;;4.25;100.00;99638.41;5044649;28;20583;-57
2023/12/16 06:57:57;;;;;;;4.88;4.07;;;;;;;4.15;100.00;99627.53;5003102;28;20202;-58
2023/12/16 07:00:22;;;;;;;3.33;3.00;;;;;;;4.22;100.00;99649.56;5011980;28;20576;-58
2023/12/16 07:02:48;;;;;;;1.60;1.50;;;;;;;3.99;100.00;99608.28;5011966;28;20218;-58
2023/12/16 07:05:13;;;;;;;1.55;1.45;;;;;;;4.00;100.00;99621.91;5026319;28;20190;-58
2023/12/16 07:07:39;;;;;;;2.42;1.30;;;;;;;3.64;100.00;99572.41;5031329;28;20194;-58
2023/12/16 07:10:08;;;;;;;2.50;2.40;;;;;;;4.17;100.00;99671.88;5031605;28;20653;-58
2023/12/16 07:12:33;;;;;;;2.33;2.20;;;;;;;3.94;100.00;99620.34;5031423;28;20229;-58
2023/12/16 07:14:59;;;;;;;3.65;3.35;;;;;;;3.93;100.00;99635.75;5031831;28;20174;-58
2023/12/16 07:17:24;;;;;;;7.25;6.53;;;;;;;3.98;100.00;99628.81;5031257;28;20197;-56
2023/12/16 07:19:50;;;;;;;8.35;6.38;;;;;;;3.59;100.00;99569.13;5031432;28;20216;-57
2023/12/16 07:22:16;;;;;;;5.72;4.75;;;;;;;4.25;100.00;99689.66;5031013;28;20519;-58
2023/12/16 07:24:42;;;;;;;8.50;6.47;;;;;;;3.97;100.00;99642.50;5031172;28;20641;-58
2023/12/16 07:27:08;;;;;;;6.47;5.18;;;;;;;3.87;100.00;99641.84;5031147;28;20191;-58
2023/12/16 07:29:36;;;;;;;3.40;3.10;;;;;;;3.49;100.00;99598.34;5061362;28;20177;-58
2023/12/16 07:32:03;;;;;;;3.20;2.90;;;;;;;4.22;100.00;99710.19;5070984;28;20182;-58
2023/12/16 07:34:29;;;;;;;4.55;3.20;;;;;;;3.82;100.00;99656.47;5071027;28;20218;-58
2023/12/16 07:36:54;;;;;;;4.22;3.83;;;;;;;3.75;100.00;99657.50;5069584;28;20264;-58
2023/12/16 07:39:19;;;;;;;4.28;3.83;;;;;;;3.72;100.00;99626.81;5071203;28;20666;-58
2023/12/16 07:41:46;;;;;;;1.95;1.85;;;;;;;4.31;100.00;99700.59;5050785;28;20228;-58
2023/12/16 07:44:11;;;;;;;2.53;1.70;;;;;;;4.35;100.00;99716.72;5050820;28;20193;-57
2023/12/16 07:46:40;;;;;;;2.40;2.20;;;;;;;4.03;100.00;99663.66;5010909;28;20187;-58
2023/12/16 07:49:06;;;;;;;1.42;1.33;;;;;;;4.36;100.00;99713.28;5010942;28;20191;-57
2023/12/16 07:51:31;;;;;;;2.42;2.22;;;;;;;4.25;100.00;99713.53;5010998;28;20187;-57
2023/12/16 07:53:57;;;;;;;1.83;1.73;;;;;;;3.91;100.00;99702.34;5010938;28;20248;-58
2023/12/16 07:56:24;;;;;;;1.33;1.33;;;;;;;3.79;100.00;99723.06;5022219;28;20615;-58
2023/12/16 07:58:50;;;;;;;1.40;1.30;;;;;;;3.13;100.00;99634.03;5030565;28;20281;-58
2023/12/16 08:01:18;;;;;;;2.75;2.55;;;;;;;3.40;100.00;99682.97;5030508;28;20203;-58
2023/12/16 08:03:44;;;;;;;2.20;2.10;;;;;;;3.11;100.00;99631.53;5030335;28;20289;-58
2023/12/16 08:06:10;;;;;;;1.70;1.60;;;;;;;3.81;100.00;99740.97;5030518;28;20345;-58
2023/12/16 08:08:39;;;;;;;14.52;12.27;;;;;;;3.34;100.00;99647.25;5030479;28;20750;-58
2023/12/16 08:11:05;;;;;;;10.32;8.75;;;;;;;3.71;100.00;99685.72;5030454;28;20178;-58
2023/12/16 08:13:31;;;;;;;4.30;3.95;;;;;;;3.73;100.00;99654.09;4990684;28;20251;-58
2023/12/16 08:15:57;;;;;;;4.25;3.85;;;;;;;4.01;100.00;99708.94;4990985;28;20279;-58
2023/12/16 08:18:23;;;;;;;3.00;2.80;;;;;;;3.95;100.00;99695.44;4990926;28;20286;-58
2023/12/16 08:20:49;;;;;;;0.93;0.93;;;;;;;4.00;100.00;99693.63;4974581;28;20300;-58
2023/12/16 08:23:16;;;;;;;0.57;0.57;;;;;;;4.15;100.00;99700.97;4971275;28;20208;-58
2023/12/16 08:25:41;;;;;;;0.68;0.68;;;;;;;4.46;100.00;99771.13;4971461;28;20252;-58
2023/12/16 08:28:07;;;;;;;0.60;0.60;;;;;;;4.41;100.00;99749.88;4971341;28;20193;-58
2023/12/16 08:30:33;;;;;;;0.60;0.60;;;;;;;4.51;100.00;99765.03;4971493;28;20671;-58
2023/12/16 08:32:58;;;;;;;0.80;0.80;;;;;;;4.39;100.00;99757.63;4971231;28;20212;-57
2023/12/16 08:35:24;;;;;;;8.75;0.88;;;;;;;4.42;100.00;99772.06;4986504;28;20196;-57
2023/12/16 08:37:49;;;;;;;1.85;0.70;;;;;;;3.79;100.00;99674.44;4990672;28;20191;-57
2023/12/16 08:40:15;;;;;;;1.27;0.85;;;;;;;4.00;100.00;99732.03;4990568;28;20206;-57
2023/12/16 08:42:43;;;;;;;1.15;1.10;;;;;;;3.93;100.00;99722.78;4990544;28;20176;-57
2023/12/16 08:45:12;;;;;;;14.95;7.10;;;;;;;3.60;100.00;99683.38;5020583;28;20201;-57
2023/12/16 08:47:37;;;;;;;35.83;17.50;;;;;;;4.09;100.00;99776.19;5029433;28;20244;-59
2023/12/16 08:50:04;;;;;;;38.30;21.65;;;;;;;4.20;100.00;99784.50;5029595;28;20697;-58
2023/12/16 08:52:33;;;;;;;35.53;21.10;;;;;;;4.04;100.00;99739.63;5029531;28;20332;-57
2023/12/16 08:54:58;;;;;;;26.85;14.68;;;;;;;4.31;100.00;99785.13;5029656;28;20240;-57
2023/12/16 08:57:25;;;;;;;29.23;15.85;;;;;;;3.93;100.00;99703.16;5029742;28;20183;-57
2023/12/16 08:59:50;;;;;;;32.47;16.75;;;;;;;4.32;100.00;99768.03;5032717;28;20194;-57
2023/12/16 09:02:15;;;;;;;18.20;12.35;;;;;;;4.28;100.00;99746.78;5049604;28;20189;-58
2023/12/16 09:04:41;;;;;;;9.80;5.35;;;;;;;3.97;100.00;99684.28;5049737;28;20579;-59
2023/12/16 09:07:07;;;;;;;1.55;1.10;;;;;;;4.63;100.00;99781.84;5049400;28;20264;-58
2023/12/16 09:09:32;;;;;;;1.10;1.10;;;;;;;4.15;100.00;99675.34;5049554;28;20185;-58
2023/12/16 09:11:58;;;;;;;0.60;0.60;;;;;;;4.27;100.00;99691.28;5049184;28;20265;-58
2023/12/16 09:14:23;;;;;;;0.90;0.90;;;;;;;4.60;100.00;99775.06;5049199;28;20182;-57
2023/12/16 09:16:49;;;;;;;212.30;48.90;;;;;;;4.24;100.00;99724.66;5049150;28;20269;-57
2023/12/16 09:19:15;;;;;;;239.27;63.05;;;;;;;4.03;100.00;99698.69;5048986;28;20194;-58
2023/12/16 09:21:42;;;;;;;44.72;16.10;;;;;;;3.99;100.00;99714.97;5035464;28;20186;-59
2023/12/16 09:24:08;;;;;;;18.77;9.65;;;;;;;3.90;100.00;99718.59;5031692;28;20603;-57
2023/12/16 09:26:33;;;;;;;150.30;43.15;;;;;;;3.93;100.00;99744.13;5031617;28;20637;-58
2023/12/16 09:29:00;;;;;;;24.08;12.25;;;;;;;3.27;100.00;99663.59;5031571;28;20178;-57
2023/12/16 09:31:26;;;;;;;11.05;7.00;;;;;;;3.83;100.00;99758.00;5028857;28;20182;-58
2023/12/16 09:33:51;;;;;;;8.68;6.30;;;;;;;3.71;100.00;99730.09;5028914;28;20218;-60
2023/12/16 09:36:17;;;;;;;11.02;6.88;;;;;;;3.86;100.00;99742.56;5028976;28;20623;-58
2023/12/16 09:38:42;;;;;;;20.83;11.73;;;;;;;3.97;100.00;99750.84;5028988;28;20224;-58
2023/12/16 09:41:22;;;;;;;16.52;9.38;;;;;;;3.10;100.00;99631.56;5028944;28;20205;-59
2023/12/16 09:43:52;;;;;;;12.77;8.45;;;;;;;3.77;100.00;99754.69;5029021;28;20267;-58
2023/12/16 09:46:23;;;;;;;18.02;11.85;;;;;;;3.91;100.00;99766.34;5008872;28;20195;-57
2023/12/16 09:48:50;;;;;;;14.23;10.00;;;;;;;4.05;100.00;99769.47;5009198;28;20650;-57
2023/12/16 09:51:16;;;;;;;7.70;6.10;;;;;;;3.41;100.00;99669.28;5009012;28;20662;-57
2023/12/16 09:53:42;;;;;;;7.63;6.25;;;;;;;4.08;100.00;99758.34;5008786;28;20230;-58
2023/12/16 09:56:11;;;;;;;2.80;2.50;;;;;;;3.82;100.00;99689.75;5009175;28;20258;-58
2023/12/16 09:58:41;;;;;;;3.50;3.17;;;;;;;3.97;100.00;99712.44;5008094;28;20274;-58
2023/12/16 10:01:08;;;;;;;2.42;2.00;;;;;;;4.34;100.00;99759.44;5007973;28;20187;-58
2023/12/16 10:03:35;;;;;;;1.55;1.50;;;;;;;4.28;100.00;99757.03;5027692;28;20190;-57
2023/12/16 10:06:01;;;;;;;6.32;4.80;;;;;;;4.33;100.00;99757.78;5028846;28;20182;-58
2023/12/16 10:08:26;;;;;;;18.33;15.05;;;;;;;4.03;100.00;99732.81;5027728;28;20252;-58
2023/12/16 10:11:02;;;;;;;19.15;13.05;;;;;;;4.02;100.00;99707.25;5028779;28;20186;-58
2023/12/16 10:13:30;;;;;;;13.82;9.40;;;;;;;3.91;100.00;99669.06;5028771;28;20228;-58
2023/12/16 10:15:56;;;;;;;5.10;4.13;;;;;;;3.86;100.00;99635.03;5028741;28;20214;-58
2023/12/16 10:18:21;;;;;;;6.45;4.40;;;;;;;4.54;100.00;99775.22;5047361;28;20320;-58
2023/12/16 10:20:47;;;;;;;5.47;4.97;;;;;;;4.46;100.00;99772.00;5048738;28;20181;-56
2023/12/16 10:23:13;;;;;;;6.85;5.60;;;;;;;4.53;100.00;99760.72;5048617;28;20272;-58
2023/12/16 10:25:42;;;;;;;10.18;7.32;;;;;;;4.13;100.00;99671.97;5032558;28;20214;-57
2023/12/16 10:28:10;;;;;;;8.77;6.80;;;;;;;4.38;100.00;99694.44;5031141;28;20265;-57
2023/12/16 10:30:35;;;;;;;3.00;2.80;;;;;;;4.51;100.00;99703.53;5028566;28;20656;-57
2023/12/16 10:33:03;;;;;;;8.05;4.38;;;;;;;4.23;100.00;99670.91;5028525;28;20297;-57
2023/12/16 10:35:33;;;;;;;7.40;5.13;;;;;;;4.66;100.00;99753.59;5028695;28;20281;-57
2023/12/16 10:37:59;;;;;;;4.30;3.90;;;;;;;4.52;100.00;99755.63;5028670;28;20217;-57
2023/12/16 10:40:25;;;;;;;6.75;5.13;;;;;;;4.59;100.00;99770.81;5028523;28;20183;-56
2023/12/16 10:42:50;;;;;;;11.77;8.23;;;;;;;4.29;100.00;99702.34;5028556;28;20178;-57
2023/12/16 10:45:16;;;;;;;10.75;8.18;;;;;;;4.04;100.00;99656.84;5028484;28;20190;-57
2023/12/16 10:47:42;;;;;;;10.10;8.15;;;;;;;4.25;100.00;99705.03;5028484;28;20679;-57
2023/12/16 10:50:09;;;;;;;11.45;8.63;;;;;;;4.40;100.00;99731.13;5028375;28;20194;-57
2023/12/16 10:52:40;;;;;;;6.80;6.10;;;;;;;4.26;100.00;99697.28;5028312;28;20599;-57
2023/12/16 10:55:07;;;;;;;17.35;14.70;;;;;;;4.28;100.00;99717.75;5028500;28;20178;-56
2023/12/16 10:57:48;;;;;;;21.65;17.08;;;;;;;4.73;100.00;99761.06;5028356;28;20206;-57
2023/12/16 11:00:21;;;;;;;18.95;12.10;;;;;;;4.53;100.00;99722.28;5028450;28;20174;-57
2023/12/16 11:03:10;;;;;;;9.38;7.53;;;;;;;5.00;100.00;99770.69;5030575;28;20183;-57
2023/12/16 11:05:43;;;;;;;6.40;5.40;;;;;;;5.08;100.00;99768.75;5030723;28;20256;-56
2023/12/16 11:08:08;;;;;;;4.80;3.88;;;;;;;4.64;100.00;99710.03;5030834;28;20684;-57
2023/12/16 11:10:35;;;;;;;5.85;5.25;;;;;;;4.89;100.00;99756.44;5031259;28;20257;-58
2023/12/16 11:13:05;;;;;;;16.40;10.55;;;;;;;4.66;100.00;99717.72;5034207;28;20212;-58
2023/12/16 11:15:32;;;;;;;4.15;3.75;;;;;;;4.80;100.00;99729.31;5034222;28;20186;-57
2023/12/16 11:18:07;;;;;;;3.78;3.42;;;;;;;4.73;100.00;99750.00;5031368;28;20518;-57
2023/12/16 11:20:42;;;;;;;14.40;12.55;;;;;;;4.48;100.00;99710.47;5031705;28;20635;-58
2023/12/16 11:23:09;;;;;;;8.93;8.02;;;;;;;4.81;100.00;99750.66;5031661;28;20833;-57
2023/12/16 11:25:36;;;;;;;2.97;2.78;;;;;;;4.29;100.00;99658.78;5031654;28;20182;-58